createdAt,value
2023-05-19T00:00:08.976Z,1005.69
2023-05-19T00:01:08.942Z,1005.67
2023-05-19T00:02:08.957Z,1005.66
2023-05-19T00:03:09.192Z,1005.65
2023-05-19T00:04:08.930Z,1005.71
2023-05-19T00:05:08.891Z,1005.60
2023-05-19T00:06:09.030Z,1005.62
2023-05-19T00:07:08.875Z,1005.69
2023-05-19T00:08:08.887Z,1005.62
2023-05-19T00:09:08.870Z,1005.71
2023-05-19T00:10:08.852Z,1005.71
2023-05-19T00:11:08.827Z,1005.71
2023-05-19T00:12:08.826Z,1005.71
2023-05-19T00:13:08.831Z,1005.70
2023-05-19T00:14:08.820Z,1005.69
2023-05-19T00:15:08.809Z,1005.69
2023-05-19T00:16:08.899Z,1005.72
2023-05-19T00:17:08.789Z,1005.63
2023-05-19T00:18:08.857Z,1005.63
2023-05-19T00:19:08.802Z,1005.61
2023-05-19T00:20:08.762Z,1005.66
2023-05-19T00:21:08.734Z,1005.68
2023-05-19T00:22:08.717Z,1005.67
2023-05-19T00:23:08.730Z,1005.69
2023-05-19T00:24:08.689Z,1005.70
2023-05-19T00:25:08.682Z,1005.68
2023-05-19T00:26:08.691Z,1005.63
2023-05-19T00:27:08.686Z,1005.65
2023-05-19T00:28:08.685Z,1005.69
2023-05-19T00:29:08.645Z,1005.65
2023-05-19T00:30:08.638Z,1005.70
2023-05-19T00:31:08.611Z,1005.66
2023-05-19T00:32:08.700Z,1005.66
2023-05-19T00:33:08.679Z,1005.62
2023-05-19T00:34:08.607Z,1005.60
2023-05-19T00:35:08.577Z,1005.65
2023-05-19T00:36:08.564Z,1005.60
2023-05-19T00:37:08.576Z,1005.66
2023-05-19T00:38:08.535Z,1005.63
2023-05-19T00:39:08.551Z,1005.62
2023-05-19T00:40:08.520Z,1005.62
2023-05-19T00:41:08.507Z,1005.60
2023-05-19T00:42:08.516Z,1005.54
2023-05-19T00:43:08.498Z,1005.60
2023-05-19T00:44:08.474Z,1005.56
2023-05-19T00:45:08.480Z,1005.54
2023-05-19T00:46:08.501Z,1005.55
2023-05-19T00:47:08.679Z,1005.54
2023-05-19T00:48:08.471Z,1005.53
2023-05-19T00:49:08.433Z,1005.53
2023-05-19T00:50:08.425Z,1005.57
2023-05-19T00:51:08.428Z,1005.54
2023-05-19T00:52:08.410Z,1005.58
2023-05-19T00:53:08.404Z,1005.59
2023-05-19T00:54:08.382Z,1005.56
2023-05-19T00:55:08.370Z,1005.54
2023-05-19T00:56:08.369Z,1005.55
2023-05-19T00:57:08.333Z,1005.54
2023-05-19T00:58:08.325Z,1005.55
2023-05-19T00:59:08.314Z,1005.56
2023-05-19T01:00:08.345Z,1005.60
2023-05-19T01:01:08.339Z,1005.53
2023-05-19T01:02:08.288Z,1005.54
2023-05-19T01:03:08.358Z,1005.51
2023-05-19T01:04:08.338Z,1005.51
2023-05-19T01:05:08.306Z,1005.47
2023-05-19T01:06:08.399Z,1005.49
2023-05-19T01:07:08.245Z,1005.48
2023-05-19T01:08:08.231Z,1005.54
2023-05-19T01:09:08.221Z,1005.51
2023-05-19T01:10:08.223Z,1005.51
2023-05-19T01:11:08.272Z,1005.47
2023-05-19T01:12:08.181Z,1005.48
2023-05-19T01:13:08.184Z,1005.47
2023-05-19T01:14:08.174Z,1005.48
2023-05-19T01:15:08.163Z,1005.50
2023-05-19T01:16:08.161Z,1005.48
2023-05-19T01:17:08.124Z,1005.44
2023-05-19T01:18:08.195Z,1005.46
2023-05-19T01:19:08.183Z,1005.45
2023-05-19T01:20:08.121Z,1005.47
2023-05-19T01:21:08.082Z,1005.44
2023-05-19T01:22:08.078Z,1005.44
2023-05-19T01:23:08.062Z,1005.41
2023-05-19T01:24:08.072Z,1005.40
2023-05-19T01:25:08.050Z,1005.41
2023-05-19T01:26:08.030Z,1005.42
2023-05-19T01:27:08.017Z,1005.40
2023-05-19T01:28:08.015Z,1005.38
2023-05-19T01:29:08.015Z,1005.43
2023-05-19T01:30:08.020Z,1005.39
2023-05-19T01:31:07.985Z,1005.38
2023-05-19T01:32:08.177Z,1005.38
2023-05-19T01:33:08.120Z,1005.37
2023-05-19T01:34:07.941Z,1005.31
2023-05-19T01:35:07.930Z,1005.33
2023-05-19T01:36:07.925Z,1005.35
2023-05-19T01:37:07.963Z,1005.43
2023-05-19T01:38:07.929Z,1005.34
2023-05-19T01:39:07.897Z,1005.35
2023-05-19T01:40:07.921Z,1005.37
2023-05-19T01:41:07.867Z,1005.34
2023-05-19T01:42:07.865Z,1005.42
2023-05-19T01:43:07.884Z,1005.33
2023-05-19T01:44:07.854Z,1005.37
2023-05-19T01:45:07.831Z,1005.37
2023-05-19T01:46:07.874Z,1005.36
2023-05-19T01:47:07.858Z,1005.35
2023-05-19T01:48:10.675Z,1005.33
2023-05-19T01:49:07.824Z,1005.34
2023-05-19T01:50:07.776Z,1005.35
2023-05-19T01:51:07.778Z,1005.34
2023-05-19T01:52:07.774Z,1005.34
2023-05-19T01:53:07.768Z,1005.37
2023-05-19T01:54:07.738Z,1005.34
2023-05-19T01:55:07.739Z,1005.38
2023-05-19T01:56:07.720Z,1005.42
2023-05-19T01:57:07.734Z,1005.37
2023-05-19T01:58:07.718Z,1005.39
2023-05-19T01:59:07.691Z,1005.38
2023-05-19T02:00:07.678Z,1005.33
2023-05-19T02:01:07.732Z,1005.36
2023-05-19T02:02:07.670Z,1005.39
2023-05-19T02:03:07.765Z,1005.35
2023-05-19T02:04:07.668Z,1005.40
2023-05-19T02:05:07.626Z,1005.42
2023-05-19T02:06:07.655Z,1005.36
2023-05-19T02:07:07.641Z,1005.38
2023-05-19T02:08:07.587Z,1005.35
2023-05-19T02:09:07.593Z,1005.44
2023-05-19T02:10:07.595Z,1005.39
2023-05-19T02:11:07.623Z,1005.43
2023-05-19T02:12:07.563Z,1005.42
2023-05-19T02:13:07.540Z,1005.38
2023-05-19T02:14:07.525Z,1005.40
2023-05-19T02:15:07.520Z,1005.44
2023-05-19T02:16:07.623Z,1005.45
2023-05-19T02:17:07.508Z,1005.37
2023-05-19T02:18:07.484Z,1005.40
2023-05-19T02:19:08.339Z,1005.41
2023-05-19T02:20:07.501Z,1005.42
2023-05-19T02:21:07.497Z,1005.41
2023-05-19T02:22:07.438Z,1005.45
2023-05-19T02:23:07.475Z,1005.39
2023-05-19T02:24:07.446Z,1005.40
2023-05-19T02:25:07.430Z,1005.38
2023-05-19T02:26:07.429Z,1005.42
2023-05-19T02:27:07.394Z,1005.40
2023-05-19T02:28:07.387Z,1005.40
2023-05-19T02:29:07.366Z,1005.44
2023-05-19T02:30:07.421Z,1005.42
2023-05-19T02:31:07.351Z,1005.45
2023-05-19T02:32:07.420Z,1005.44
2023-05-19T02:33:07.370Z,1005.44
2023-05-19T02:34:07.408Z,1005.48
2023-05-19T02:35:07.338Z,1005.45
2023-05-19T02:36:07.324Z,1005.43
2023-05-19T02:37:07.279Z,1005.38
2023-05-19T02:38:07.274Z,1005.39
2023-05-19T02:39:07.281Z,1005.35
2023-05-19T02:40:07.257Z,1005.33
2023-05-19T02:41:07.252Z,1005.33
2023-05-19T02:42:07.242Z,1005.31
2023-05-19T02:43:07.243Z,1005.32
2023-05-19T02:44:07.220Z,1005.34
2023-05-19T02:45:07.205Z,1005.35
2023-05-19T02:46:07.273Z,1005.36
2023-05-19T02:47:07.196Z,1005.35
2023-05-19T02:48:07.257Z,1005.30
2023-05-19T02:49:07.206Z,1005.31
2023-05-19T02:50:07.161Z,1005.29
2023-05-19T02:51:07.150Z,1005.30
2023-05-19T02:52:07.196Z,1005.29
2023-05-19T02:53:07.183Z,1005.29
2023-05-19T02:54:07.101Z,1005.27
2023-05-19T02:55:07.091Z,1005.23
2023-05-19T02:56:07.081Z,1005.19
2023-05-19T02:57:07.092Z,1005.23
2023-05-19T02:58:07.078Z,1005.26
2023-05-19T02:59:07.054Z,1005.17
2023-05-19T03:00:07.058Z,1005.23
2023-05-19T03:01:07.038Z,1005.17
2023-05-19T03:02:07.127Z,1005.26
2023-05-19T03:03:07.143Z,1005.18
2023-05-19T03:04:07.099Z,1005.23
2023-05-19T03:05:07.000Z,1005.19
2023-05-19T03:06:06.969Z,1005.17
2023-05-19T03:07:06.980Z,1005.24
2023-05-19T03:08:06.949Z,1005.11
2023-05-19T03:09:06.950Z,1005.17
2023-05-19T03:10:06.933Z,1005.15
2023-05-19T03:11:06.930Z,1005.17
2023-05-19T03:12:06.927Z,1005.15
2023-05-19T03:13:06.910Z,1005.11
2023-05-19T03:14:06.893Z,1005.14
2023-05-19T03:15:06.898Z,1005.17
2023-05-19T03:16:06.912Z,1005.22
2023-05-19T03:17:06.902Z,1005.18
2023-05-19T03:18:06.883Z,1005.12
2023-05-19T03:19:06.865Z,1005.21
2023-05-19T03:20:06.835Z,1005.22
2023-05-19T03:21:06.840Z,1005.22
2023-05-19T03:22:06.806Z,1005.27
2023-05-19T03:23:06.818Z,1005.27
2023-05-19T03:24:06.816Z,1005.24
2023-05-19T03:25:06.781Z,1005.26
2023-05-19T03:26:06.786Z,1005.28
2023-05-19T03:27:06.798Z,1005.28
2023-05-19T03:28:06.748Z,1005.32
2023-05-19T03:29:06.738Z,1005.28
2023-05-19T03:30:06.909Z,1005.30
2023-05-19T03:31:06.685Z,1005.31
2023-05-19T03:32:06.700Z,1005.27
2023-05-19T03:33:06.743Z,1005.28
2023-05-19T03:34:06.664Z,1005.32
2023-05-19T03:35:06.702Z,1005.33
2023-05-19T03:36:06.670Z,1005.27
2023-05-19T03:37:06.656Z,1005.25
2023-05-19T03:38:06.648Z,1005.27
2023-05-19T03:39:06.640Z,1005.24
2023-05-19T03:40:06.644Z,1005.32
2023-05-19T03:41:06.611Z,1005.29
2023-05-19T03:42:06.603Z,1005.35
2023-05-19T03:43:06.603Z,1005.36
2023-05-19T03:44:06.601Z,1005.36
2023-05-19T03:45:06.550Z,1005.32
2023-05-19T03:46:06.539Z,1005.30
2023-05-19T03:47:06.558Z,1005.33
2023-05-19T03:48:06.564Z,1005.34
2023-05-19T03:49:06.552Z,1005.31
2023-05-19T03:50:06.519Z,1005.33
2023-05-19T03:51:06.539Z,1005.32
2023-05-19T03:52:06.440Z,1005.31
2023-05-19T03:53:06.432Z,1005.30
2023-05-19T03:54:06.439Z,1005.32
2023-05-19T03:55:06.409Z,1005.32
2023-05-19T03:56:06.397Z,1005.29
2023-05-19T03:57:06.408Z,1005.29
2023-05-19T03:58:06.408Z,1005.25
2023-05-19T03:59:06.391Z,1005.33
2023-05-19T04:00:06.405Z,1005.29
2023-05-19T04:01:06.403Z,1005.26
2023-05-19T04:02:07.753Z,1005.30
2023-05-19T04:03:06.532Z,1005.31
2023-05-19T04:04:06.384Z,1005.32
2023-05-19T04:05:06.357Z,1005.33
2023-05-19T04:06:06.351Z,1005.37
2023-05-19T04:07:06.337Z,1005.33
2023-05-19T04:08:06.312Z,1005.33
2023-05-19T04:09:06.262Z,1005.27
2023-05-19T04:10:06.244Z,1005.29
2023-05-19T04:11:06.245Z,1005.35
2023-05-19T04:12:06.262Z,1005.38
2023-05-19T04:13:06.238Z,1005.37
2023-05-19T04:14:06.207Z,1005.38
2023-05-19T04:15:06.214Z,1005.34
2023-05-19T04:16:06.253Z,1005.36
2023-05-19T04:17:06.194Z,1005.37
2023-05-19T04:18:06.194Z,1005.32
2023-05-19T04:19:06.253Z,1005.32
2023-05-19T04:20:06.148Z,1005.34
2023-05-19T04:21:06.136Z,1005.36
2023-05-19T04:22:06.172Z,1005.36
2023-05-19T04:23:06.118Z,1005.38
2023-05-19T04:24:06.120Z,1005.34
2023-05-19T04:25:06.097Z,1005.34
2023-05-19T04:26:06.099Z,1005.35
2023-05-19T04:27:06.171Z,1005.33
2023-05-19T04:28:06.056Z,1005.43
2023-05-19T04:29:06.056Z,1005.35
2023-05-19T04:30:06.045Z,1005.36
2023-05-19T04:31:06.079Z,1005.36
2023-05-19T04:32:06.022Z,1005.36
2023-05-19T04:33:06.018Z,1005.36
2023-05-19T04:34:06.008Z,1005.32
2023-05-19T04:35:05.990Z,1005.35
2023-05-19T04:36:05.993Z,1005.34
2023-05-19T04:37:05.986Z,1005.33
2023-05-19T04:38:05.957Z,1005.41
2023-05-19T04:39:05.943Z,1005.42
2023-05-19T04:40:05.953Z,1005.45
2023-05-19T04:41:05.937Z,1005.44
2023-05-19T04:42:05.915Z,1005.43
2023-05-19T04:43:05.896Z,1005.47
2023-05-19T04:44:05.886Z,1005.51
2023-05-19T04:45:05.889Z,1005.56
2023-05-19T04:46:05.924Z,1005.54
2023-05-19T04:47:05.879Z,1005.46
2023-05-19T04:48:05.896Z,1005.49
2023-05-19T04:49:05.832Z,1005.49
2023-05-19T04:50:05.867Z,1005.53
2023-05-19T04:51:05.821Z,1005.50
2023-05-19T04:52:05.822Z,1005.52
2023-05-19T04:53:05.792Z,1005.50
2023-05-19T04:54:05.806Z,1005.51
2023-05-19T04:55:05.785Z,1005.53
2023-05-19T04:56:05.772Z,1005.59
2023-05-19T04:57:05.755Z,1005.50
2023-05-19T04:58:05.752Z,1005.50
2023-05-19T04:59:05.742Z,1005.53
2023-05-19T05:00:05.726Z,1005.51
2023-05-19T05:01:05.728Z,1005.47
2023-05-19T05:02:05.784Z,1005.56
2023-05-19T05:03:05.790Z,1005.53
2023-05-19T05:04:05.809Z,1005.61
2023-05-19T05:05:05.665Z,1005.54
2023-05-19T05:06:05.655Z,1005.43
2023-05-19T05:07:05.644Z,1005.45
2023-05-19T05:08:05.917Z,1005.44
2023-05-19T05:09:05.635Z,1005.48
2023-05-19T05:10:05.621Z,1005.44
2023-05-19T05:11:05.612Z,1005.45
2023-05-19T05:12:05.591Z,1005.44
2023-05-19T05:13:05.599Z,1005.45
2023-05-19T05:14:05.567Z,1005.43
2023-05-19T05:15:05.563Z,1005.44
2023-05-19T05:16:05.558Z,1005.40
2023-05-19T05:17:05.524Z,1005.40
2023-05-19T05:18:05.575Z,1005.37
2023-05-19T05:19:05.558Z,1005.39
2023-05-19T05:20:05.513Z,1005.44
2023-05-19T05:21:05.492Z,1005.45
2023-05-19T05:22:05.507Z,1005.39
2023-05-19T05:23:05.493Z,1005.45
2023-05-19T05:24:05.461Z,1005.45
2023-05-19T05:25:05.472Z,1005.44
2023-05-19T05:26:05.437Z,1005.45
2023-05-19T05:27:05.442Z,1005.39
2023-05-19T05:28:05.500Z,1005.43
2023-05-19T05:29:05.406Z,1005.40
2023-05-19T05:30:05.390Z,1005.41
2023-05-19T05:31:05.380Z,1005.48
2023-05-19T05:32:05.416Z,1005.47
2023-05-19T05:33:05.485Z,1005.44
2023-05-19T05:34:05.367Z,1005.48
2023-05-19T05:35:05.343Z,1005.47
2023-05-19T05:36:05.350Z,1005.45
2023-05-19T05:37:05.337Z,1005.48
2023-05-19T05:38:05.332Z,1005.48
2023-05-19T05:39:05.303Z,1005.47
2023-05-19T05:40:05.310Z,1005.46
2023-05-19T05:41:05.309Z,1005.43
2023-05-19T05:42:05.271Z,1005.42
2023-05-19T05:43:05.256Z,1005.39
2023-05-19T05:44:05.242Z,1005.39
2023-05-19T05:45:05.233Z,1005.39
2023-05-19T05:46:05.347Z,1005.43
2023-05-19T05:47:05.299Z,1005.42
2023-05-19T05:48:05.247Z,1005.40
2023-05-19T05:49:05.304Z,1005.44
2023-05-19T05:50:05.320Z,1005.40
2023-05-19T05:51:05.279Z,1005.41
2023-05-19T05:52:06.815Z,1005.40
2023-05-19T05:53:05.150Z,1005.42
2023-05-19T05:54:05.164Z,1005.42
2023-05-19T05:55:05.150Z,1005.36
2023-05-19T05:56:05.126Z,1005.39
2023-05-19T05:57:05.110Z,1005.37
2023-05-19T05:58:05.103Z,1005.42
2023-05-19T05:59:05.118Z,1005.43
2023-05-19T06:00:05.126Z,1005.38
2023-05-19T06:01:05.074Z,1005.40
2023-05-19T06:02:05.147Z,1005.43
2023-05-19T06:03:05.209Z,1005.43
2023-05-19T06:04:05.062Z,1005.42
2023-05-19T06:05:05.056Z,1005.43
2023-05-19T06:06:05.192Z,1005.44
2023-05-19T06:07:05.005Z,1005.44
2023-05-19T06:08:05.024Z,1005.40
2023-05-19T06:09:05.001Z,1005.39
2023-05-19T06:10:04.984Z,1005.36
2023-05-19T06:11:04.978Z,1005.41
2023-05-19T06:12:04.970Z,1005.36
2023-05-19T06:13:04.953Z,1005.44
2023-05-19T06:14:04.968Z,1005.37
2023-05-19T06:15:04.932Z,1005.42
2023-05-19T06:16:04.957Z,1005.39
2023-05-19T06:17:04.903Z,1005.39
2023-05-19T06:18:04.945Z,1005.44
2023-05-19T06:19:04.955Z,1005.36
2023-05-19T06:20:04.871Z,1005.33
2023-05-19T06:21:04.869Z,1005.36
2023-05-19T06:22:04.860Z,1005.31
2023-05-19T06:23:04.865Z,1005.32
2023-05-19T06:24:04.848Z,1005.36
2023-05-19T06:25:04.816Z,1005.32
2023-05-19T06:26:04.825Z,1005.37
2023-05-19T06:27:04.794Z,1005.31
2023-05-19T06:28:04.809Z,1005.33
2023-05-19T06:29:04.795Z,1005.33
2023-05-19T06:30:04.772Z,1005.39
2023-05-19T06:31:04.789Z,1005.34
2023-05-19T06:32:04.773Z,1005.33
2023-05-19T06:33:04.807Z,1005.36
2023-05-19T06:34:04.736Z,1005.32
2023-05-19T06:35:04.755Z,1005.33
2023-05-19T06:36:04.786Z,1005.38
2023-05-19T06:37:04.714Z,1005.34
2023-05-19T06:38:04.692Z,1005.34
2023-05-19T06:39:04.681Z,1005.36
2023-05-19T06:40:04.669Z,1005.33
2023-05-19T06:41:04.657Z,1005.32
2023-05-19T06:42:04.685Z,1005.34
2023-05-19T06:43:04.631Z,1005.38
2023-05-19T06:44:04.647Z,1005.38
2023-05-19T06:45:04.611Z,1005.30
2023-05-19T06:46:04.614Z,1005.34
2023-05-19T06:47:04.720Z,1005.35
2023-05-19T06:48:04.622Z,1005.34
2023-05-19T06:49:04.572Z,1005.31
2023-05-19T06:50:04.563Z,1005.35
2023-05-19T06:51:04.576Z,1005.31
2023-05-19T06:52:04.545Z,1005.28
2023-05-19T06:53:04.536Z,1005.32
2023-05-19T06:54:04.518Z,1005.28
2023-05-19T06:55:04.505Z,1005.27
2023-05-19T06:56:04.521Z,1005.26
2023-05-19T06:57:04.484Z,1005.27
2023-05-19T06:58:04.472Z,1005.24
2023-05-19T06:59:04.476Z,1005.26
2023-05-19T07:00:04.489Z,1005.23
2023-05-19T07:01:04.450Z,1005.27
2023-05-19T07:02:04.456Z,1005.23
2023-05-19T07:03:04.486Z,1005.23
2023-05-19T07:04:04.546Z,1005.23
2023-05-19T07:05:04.414Z,1005.25
2023-05-19T07:06:07.089Z,1005.25
2023-05-19T07:07:04.386Z,1005.23
2023-05-19T07:08:04.373Z,1005.18
2023-05-19T07:09:04.362Z,1005.15
2023-05-19T07:10:04.371Z,1005.20
2023-05-19T07:11:04.336Z,1005.15
2023-05-19T07:12:04.327Z,1005.18
2023-05-19T07:13:04.314Z,1005.14
2023-05-19T07:14:04.327Z,1005.10
2023-05-19T07:15:04.327Z,1005.16
2023-05-19T07:16:04.307Z,1005.11
2023-05-19T07:17:04.265Z,1005.08
2023-05-19T07:18:04.291Z,1005.04
2023-05-19T07:19:04.289Z,1005.08
2023-05-19T07:20:04.236Z,1005.08
2023-05-19T07:21:04.236Z,1005.05
2023-05-19T07:22:04.227Z,1005.13
2023-05-19T07:23:04.205Z,1005.07
2023-05-19T07:24:04.216Z,1005.08
2023-05-19T07:25:04.178Z,1005.07
2023-05-19T07:26:04.180Z,1005.07
2023-05-19T07:27:04.178Z,1005.07
2023-05-19T07:28:04.193Z,1005.10
2023-05-19T07:29:04.167Z,1005.07
2023-05-19T07:30:04.146Z,1004.99
2023-05-19T07:31:04.130Z,1004.98
2023-05-19T07:32:04.133Z,1004.95
2023-05-19T07:33:04.170Z,1004.96
2023-05-19T07:34:04.094Z,1004.99
2023-05-19T07:35:04.086Z,1004.93
2023-05-19T07:36:04.094Z,1005.00
2023-05-19T07:37:04.057Z,1004.97
2023-05-19T07:38:04.094Z,1004.99
2023-05-19T07:39:04.049Z,1004.98
2023-05-19T07:40:04.048Z,1004.98
2023-05-19T07:41:04.020Z,1004.94
2023-05-19T07:42:04.027Z,1004.88
2023-05-19T07:43:04.011Z,1004.93
2023-05-19T07:44:03.990Z,1004.91
2023-05-19T07:45:03.966Z,1004.91
2023-05-19T07:46:04.048Z,1004.82
2023-05-19T07:47:03.965Z,1004.85
2023-05-19T07:48:03.988Z,1004.76
2023-05-19T07:49:03.937Z,1004.82
2023-05-19T07:50:03.937Z,1004.77
2023-05-19T07:51:03.970Z,1004.80
2023-05-19T07:52:03.921Z,1004.81
2023-05-19T07:53:03.888Z,1004.78
2023-05-19T07:54:03.894Z,1004.76
2023-05-19T07:55:03.871Z,1004.75
2023-05-19T07:56:03.856Z,1004.72
2023-05-19T07:57:03.869Z,1004.76
2023-05-19T07:58:03.836Z,1004.79
2023-05-19T07:59:03.830Z,1004.72
2023-05-19T08:00:03.808Z,1004.73
2023-05-19T08:01:03.830Z,1004.76
2023-05-19T08:02:03.834Z,1004.74
2023-05-19T08:03:03.835Z,1004.72
2023-05-19T08:04:03.904Z,1004.75
2023-05-19T08:05:03.756Z,1004.71
2023-05-19T08:06:03.782Z,1004.72
2023-05-19T08:07:03.747Z,1004.74
2023-05-19T08:08:03.734Z,1004.73
2023-05-19T08:09:03.721Z,1004.67
2023-05-19T08:10:03.714Z,1004.69
2023-05-19T08:11:03.724Z,1004.72
2023-05-19T08:12:03.698Z,1004.68
2023-05-19T08:13:03.674Z,1004.67
2023-05-19T08:14:03.669Z,1004.66
2023-05-19T08:15:03.701Z,1004.63
2023-05-19T08:16:03.701Z,1004.69
2023-05-19T08:17:03.628Z,1004.61
2023-05-19T08:18:03.691Z,1004.68
2023-05-19T08:19:03.660Z,1004.69
2023-05-19T08:20:03.740Z,1004.64
2023-05-19T08:21:03.587Z,1004.62
2023-05-19T08:22:03.585Z,1004.58
2023-05-19T08:23:03.577Z,1004.61
2023-05-19T08:24:03.601Z,1004.68
2023-05-19T08:25:03.591Z,1004.52
2023-05-19T08:26:03.551Z,1004.61
2023-05-19T08:27:03.543Z,1004.52
2023-05-19T08:28:03.532Z,1004.55
2023-05-19T08:29:03.526Z,1004.54
2023-05-19T08:30:03.524Z,1004.58
2023-05-19T08:31:03.507Z,1004.54
2023-05-19T08:32:03.487Z,1004.50
2023-05-19T08:33:03.487Z,1004.54
2023-05-19T08:34:03.484Z,1004.51
2023-05-19T08:35:03.459Z,1004.53
2023-05-19T08:36:03.433Z,1004.42
2023-05-19T08:37:03.422Z,1004.40
2023-05-19T08:38:03.420Z,1004.44
2023-05-19T08:39:03.420Z,1004.49
2023-05-19T08:40:03.397Z,1004.38
2023-05-19T08:41:03.390Z,1004.48
2023-05-19T08:42:03.374Z,1004.49
2023-05-19T08:43:03.399Z,1004.42
2023-05-19T08:44:03.366Z,1004.42
2023-05-19T08:45:03.336Z,1004.33
2023-05-19T08:46:03.328Z,1004.34
2023-05-19T08:47:03.507Z,1004.38
2023-05-19T08:48:03.330Z,1004.34
2023-05-19T08:49:03.297Z,1004.38
2023-05-19T08:50:03.307Z,1004.33
2023-05-19T08:51:03.275Z,1004.39
2023-05-19T08:52:03.258Z,1004.31
2023-05-19T08:53:03.281Z,1004.34
2023-05-19T08:54:03.243Z,1004.29
2023-05-19T08:55:03.238Z,1004.35
2023-05-19T08:56:03.215Z,1004.24
2023-05-19T08:57:03.233Z,1004.26
2023-05-19T08:58:03.218Z,1004.25
2023-05-19T08:59:03.183Z,1004.20
2023-05-19T09:00:03.184Z,1004.26
2023-05-19T09:01:03.198Z,1004.24
2023-05-19T09:02:03.167Z,1004.23
2023-05-19T09:03:17.363Z,1004.16
2023-05-19T09:04:04.197Z,1004.17
2023-05-19T09:05:03.291Z,1004.10
2023-05-19T09:06:03.171Z,1004.23
2023-05-19T09:07:03.131Z,1004.15
2023-05-19T09:08:03.086Z,1004.13
2023-05-19T09:09:03.087Z,1004.17
2023-05-19T09:10:03.080Z,1004.17
2023-05-19T09:11:03.089Z,1004.09
2023-05-19T09:12:03.065Z,1004.09
2023-05-19T09:13:03.053Z,1004.07
2023-05-19T09:14:03.027Z,1004.13
2023-05-19T09:15:03.042Z,1004.06
2023-05-19T09:16:03.078Z,1004.09
2023-05-19T09:17:03.079Z,1004.10
2023-05-19T09:18:03.016Z,1004.09
2023-05-19T09:19:03.005Z,1004.13
2023-05-19T09:20:02.975Z,1004.13
2023-05-19T09:21:03.361Z,1004.13
2023-05-19T09:22:02.945Z,1004.14
2023-05-19T09:23:02.944Z,1004.15
2023-05-19T09:24:02.931Z,1004.10
2023-05-19T09:25:02.926Z,1004.13
2023-05-19T09:26:02.916Z,1004.11
2023-05-19T09:27:02.916Z,1004.16
2023-05-19T09:28:02.902Z,1004.11
2023-05-19T09:29:02.895Z,1004.14
2023-05-19T09:30:02.962Z,1004.10
2023-05-19T09:31:03.881Z,1004.06
2023-05-19T09:32:02.879Z,1004.07
2023-05-19T09:33:02.863Z,1004.06
2023-05-19T09:34:02.820Z,1004.02
2023-05-19T09:35:02.827Z,1004.04
2023-05-19T09:36:02.801Z,1004.02
2023-05-19T09:37:02.790Z,1003.97
2023-05-19T09:38:02.782Z,1004.00
2023-05-19T09:39:02.766Z,1003.99
2023-05-19T09:40:02.777Z,1003.93
2023-05-19T09:41:02.757Z,1003.96
2023-05-19T09:42:02.734Z,1003.93
2023-05-19T09:43:02.745Z,1003.93
2023-05-19T09:44:02.734Z,1003.96
2023-05-19T09:45:02.824Z,1003.93
2023-05-19T09:46:02.756Z,1003.94
2023-05-19T09:47:02.690Z,1003.91
2023-05-19T09:48:02.718Z,1003.88
2023-05-19T09:49:02.695Z,1003.93
2023-05-19T09:50:02.650Z,1003.89
2023-05-19T09:51:02.705Z,1003.83
2023-05-19T09:52:02.627Z,1003.87
2023-05-19T09:53:02.621Z,1003.88
2023-05-19T09:54:02.628Z,1003.92
2023-05-19T09:55:02.619Z,1003.90
2023-05-19T09:56:02.592Z,1003.88
2023-05-19T09:57:02.611Z,1003.86
2023-05-19T09:58:02.585Z,1003.89
2023-05-19T09:59:02.607Z,1003.80
2023-05-19T10:00:02.549Z,1003.81
2023-05-19T10:01:02.578Z,1003.87
2023-05-19T10:02:03.009Z,1003.88
2023-05-19T10:03:02.553Z,1003.87
2023-05-19T10:04:03.802Z,1003.89
2023-05-19T10:05:02.552Z,1003.89
2023-05-19T10:06:02.495Z,1003.88
2023-05-19T10:07:02.492Z,1003.87
2023-05-19T10:08:02.479Z,1003.86
2023-05-19T10:09:02.450Z,1003.83
2023-05-19T10:10:02.438Z,1003.91
2023-05-19T10:11:02.443Z,1003.80
2023-05-19T10:12:02.444Z,1003.85
2023-05-19T10:13:02.436Z,1003.78
2023-05-19T10:14:02.411Z,1003.81
2023-05-19T10:15:02.412Z,1003.76
2023-05-19T10:16:02.635Z,1003.76
2023-05-19T10:17:02.462Z,1003.77
2023-05-19T10:18:02.415Z,1003.73
2023-05-19T10:19:02.461Z,1003.76
2023-05-19T10:20:02.366Z,1003.73
2023-05-19T10:21:02.334Z,1003.74
2023-05-19T10:22:02.338Z,1003.76
2023-05-19T10:23:02.333Z,1003.72
2023-05-19T10:24:02.280Z,1003.78
2023-05-19T10:25:02.297Z,1003.72
2023-05-19T10:26:02.300Z,1003.76
2023-05-19T10:27:02.290Z,1003.76
2023-05-19T10:28:02.278Z,1003.68
2023-05-19T10:29:02.264Z,1003.73
2023-05-19T10:30:02.233Z,1003.71
2023-05-19T10:31:02.244Z,1003.66
2023-05-19T10:32:02.246Z,1003.65
2023-05-19T10:33:02.242Z,1003.69
2023-05-19T10:34:02.180Z,1003.67
2023-05-19T10:35:02.184Z,1003.65
2023-05-19T10:36:02.187Z,1003.64
2023-05-19T10:37:02.151Z,1003.65
2023-05-19T10:38:02.140Z,1003.64
2023-05-19T10:39:02.146Z,1003.68
2023-05-19T10:40:02.155Z,1003.64
2023-05-19T10:41:02.128Z,1003.63
2023-05-19T10:42:02.097Z,1003.68
2023-05-19T10:43:02.090Z,1003.61
2023-05-19T10:44:02.088Z,1003.55
2023-05-19T10:45:02.095Z,1003.51
2023-05-19T10:46:02.048Z,1003.59
2023-05-19T10:47:02.169Z,1003.55
2023-05-19T10:48:02.047Z,1003.59
2023-05-19T10:49:02.035Z,1003.55
2023-05-19T10:50:02.053Z,1003.56
2023-05-19T10:51:02.027Z,1003.48
2023-05-19T10:52:02.022Z,1003.45
2023-05-19T10:53:01.996Z,1003.43
2023-05-19T10:54:02.052Z,1003.44
2023-05-19T10:55:01.996Z,1003.44
2023-05-19T10:56:01.962Z,1003.45
2023-05-19T10:57:01.955Z,1003.38
2023-05-19T10:58:01.939Z,1003.44
2023-05-19T10:59:01.966Z,1003.40
2023-05-19T11:00:01.910Z,1003.50
2023-05-19T11:01:01.912Z,1003.48
2023-05-19T11:02:01.914Z,1003.46
2023-05-19T11:03:01.923Z,1003.53
2023-05-19T11:04:01.920Z,1003.51
2023-05-19T11:05:01.873Z,1003.44
2023-05-19T11:06:01.844Z,1003.46
2023-05-19T11:07:01.850Z,1003.44
2023-05-19T11:08:01.860Z,1003.45
2023-05-19T11:09:01.900Z,1003.46
2023-05-19T11:10:01.820Z,1003.40
2023-05-19T11:11:01.820Z,1003.38
2023-05-19T11:12:01.793Z,1003.33
2023-05-19T11:13:01.798Z,1003.41
2023-05-19T11:14:01.795Z,1003.42
2023-05-19T11:15:01.776Z,1003.41
2023-05-19T11:16:01.744Z,1003.42
2023-05-19T11:17:01.814Z,1003.43
2023-05-19T11:18:01.805Z,1003.46
2023-05-19T11:19:01.798Z,1003.49
2023-05-19T11:20:01.711Z,1003.42
2023-05-19T11:21:01.705Z,1003.40
2023-05-19T11:22:01.735Z,1003.45
2023-05-19T11:23:01.761Z,1003.37
2023-05-19T11:24:01.730Z,1003.36
2023-05-19T11:25:01.651Z,1003.41
2023-05-19T11:26:01.665Z,1003.36
2023-05-19T11:27:01.647Z,1003.35
2023-05-19T11:28:01.625Z,1003.35
2023-05-19T11:29:01.609Z,1003.37
2023-05-19T11:30:01.611Z,1003.44
2023-05-19T11:31:01.585Z,1003.37
2023-05-19T11:32:01.631Z,1003.35
2023-05-19T11:33:01.596Z,1003.35
2023-05-19T11:34:01.554Z,1003.35
2023-05-19T11:35:01.561Z,1003.31
2023-05-19T11:36:01.549Z,1003.36
2023-05-19T11:37:01.543Z,1003.34
2023-05-19T11:38:01.511Z,1003.32
2023-05-19T11:39:01.513Z,1003.26
2023-05-19T11:40:01.536Z,1003.25
2023-05-19T11:41:01.502Z,1003.33
2023-05-19T11:42:01.470Z,1003.32
2023-05-19T11:43:01.468Z,1003.28
2023-05-19T11:44:01.458Z,1003.25
2023-05-19T11:45:01.458Z,1003.25
2023-05-19T11:46:01.510Z,1003.25
2023-05-19T11:47:01.422Z,1003.17
2023-05-19T11:48:03.068Z,1003.30
2023-05-19T11:49:01.405Z,1003.37
2023-05-19T11:50:01.423Z,1003.31
2023-05-19T11:51:01.422Z,1003.32
2023-05-19T11:52:01.365Z,1003.29
2023-05-19T11:53:01.680Z,1003.31
2023-05-19T11:54:01.337Z,1003.30
2023-05-19T11:55:01.363Z,1003.29
2023-05-19T11:56:01.318Z,1003.26
2023-05-19T11:57:01.318Z,1003.24
2023-05-19T11:58:05.168Z,1003.25
2023-05-19T11:59:01.306Z,1003.23
2023-05-19T12:00:01.315Z,1003.18
2023-05-19T12:01:01.269Z,1003.26
2023-05-19T12:02:01.272Z,1003.23
2023-05-19T12:03:01.362Z,1003.22
2023-05-19T12:04:01.264Z,1003.21
2023-05-19T12:05:01.297Z,1003.20